createdAt,value
2017-09-24T00:00:37.854Z,79.67
2017-09-24T00:03:06.212Z,82.87
2017-09-24T00:05:34.579Z,83.43
2017-09-24T00:08:02.966Z,76.53
2017-09-24T00:10:31.325Z,77.17
2017-09-24T00:12:59.674Z,73.50
2017-09-24T00:15:28.036Z,75.57
2017-09-24T00:17:56.522Z,71.80
2017-09-24T00:20:24.879Z,69.40
2017-09-24T00:22:53.226Z,69.93
2017-09-24T00:25:21.578Z,64.83
2017-09-24T00:27:49.930Z,72.37
2017-09-24T00:30:18.430Z,72.87
2017-09-24T00:32:46.778Z,77.50
2017-09-24T00:35:15.139Z,80.77
2017-09-24T00:37:43.486Z,78.00
2017-09-24T00:40:11.842Z,76.73
2017-09-24T00:42:40.222Z,70.50
2017-09-24T00:45:08.571Z,72.50
2017-09-24T00:47:36.922Z,69.37
2017-09-24T00:50:05.275Z,74.90
2017-09-24T00:52:33.626Z,76.83
2017-09-24T00:55:01.993Z,74.40
2017-09-24T00:57:30.334Z,76.10
2017-09-24T00:59:58.822Z,75.70
2017-09-24T01:02:27.174Z,75.07
2017-09-24T01:04:55.526Z,77.83
2017-09-24T01:07:23.882Z,73.53
2017-09-24T01:09:52.235Z,70.17
2017-09-24T01:12:20.627Z,70.87
2017-09-24T01:14:48.986Z,66.43
2017-09-24T01:17:17.339Z,67.07
2017-09-24T01:19:45.692Z,71.97
2017-09-24T01:22:14.043Z,72.20
2017-09-24T01:24:42.418Z,74.03
2017-09-24T01:27:10.766Z,75.47
2017-09-24T01:29:39.162Z,72.93
2017-09-24T01:32:07.514Z,72.57
2017-09-24T01:34:35.862Z,78.27
2017-09-24T01:37:04.214Z,74.30
2017-09-24T01:39:32.567Z,73.93
2017-09-24T01:42:00.919Z,73.07
2017-09-24T01:44:29.275Z,72.80
2017-09-24T01:46:57.652Z,73.80
2017-09-24T01:49:26.005Z,66.37
2017-09-24T01:51:54.482Z,69.40
2017-09-24T01:54:22.841Z,66.90
2017-09-24T01:56:51.190Z,68.60
2017-09-24T01:59:19.552Z,68.60
2017-09-24T02:01:47.911Z,68.03
2017-09-24T02:04:16.395Z,66.90
2017-09-24T02:06:44.758Z,65.27
2017-09-24T02:09:13.107Z,73.10
2017-09-24T02:11:41.458Z,64.37
2017-09-24T02:14:09.810Z,61.77
2017-09-24T02:16:38.199Z,63.13
2017-09-24T02:19:06.551Z,64.00
2017-09-24T02:21:34.926Z,64.87
2017-09-24T02:24:03.266Z,69.13
2017-09-24T02:26:31.626Z,67.60
2017-09-24T02:29:00.102Z,70.70
2017-09-24T02:31:28.455Z,70.77
2017-09-24T02:33:56.807Z,69.07
2017-09-24T02:36:25.166Z,68.53
2017-09-24T02:38:53.518Z,63.37
2017-09-24T02:41:21.877Z,64.37
2017-09-24T02:43:50.228Z,59.03
2017-09-24T02:46:18.603Z,59.97
2017-09-24T02:48:46.958Z,56.20
2017-09-24T02:51:15.312Z,61.80
2017-09-24T02:53:43.658Z,60.67
2017-09-24T02:56:12.010Z,60.90
2017-09-24T02:58:40.362Z,57.30
2017-09-24T03:01:08.718Z,58.07
2017-09-24T03:03:37.203Z,59.30
2017-09-24T03:06:05.555Z,62.07
2017-09-24T03:08:33.918Z,58.97
2017-09-24T03:11:02.263Z,55.00
2017-09-24T03:13:30.611Z,56.30
2017-09-24T03:15:58.986Z,57.87
2017-09-24T03:18:27.343Z,65.00
2017-09-24T03:20:55.696Z,61.87
2017-09-24T03:23:24.054Z,63.77
2017-09-24T03:25:52.394Z,60.53
2017-09-24T03:28:20.747Z,60.30
2017-09-24T03:30:49.099Z,58.43
2017-09-24T03:33:17.609Z,57.17
2017-09-24T03:35:45.956Z,53.20
2017-09-24T03:38:14.303Z,53.30
2017-09-24T03:40:42.655Z,54.07
2017-09-24T03:43:11.006Z,58.90
2017-09-24T03:45:39.502Z,57.37
2017-09-24T03:48:07.854Z,57.57
2017-09-24T03:50:36.207Z,55.33
2017-09-24T03:53:04.555Z,56.43
2017-09-24T03:55:32.908Z,52.53
2017-09-24T03:58:01.306Z,53.23
2017-09-24T04:00:29.661Z,55.80
2017-09-24T04:02:58.012Z,54.27
2017-09-24T04:05:26.365Z,55.97
2017-09-24T04:07:55.022Z,51.73
2017-09-24T04:10:23.383Z,52.60
2017-09-24T04:12:51.735Z,53.20
2017-09-24T04:15:20.138Z,52.87
2017-09-24T04:17:48.526Z,54.90
2017-09-24T04:20:16.883Z,59.30
2017-09-24T04:22:45.229Z,61.90
2017-09-24T04:25:13.582Z,54.40
2017-09-24T04:27:42.062Z,51.03
2017-09-24T04:30:10.419Z,49.30
2017-09-24T04:32:38.770Z,48.57
2017-09-24T04:35:07.127Z,49.90
2017-09-24T04:37:35.474Z,49.33
2017-09-24T04:40:03.855Z,48.93
2017-09-24T04:42:32.202Z,50.80
2017-09-24T04:45:00.599Z,53.80
2017-09-24T04:47:28.957Z,52.80
2017-09-24T04:49:57.312Z,54.53
2017-09-24T04:52:25.664Z,56.03
2017-09-24T04:54:54.021Z,63.90
2017-09-24T04:57:22.398Z,59.03
2017-09-24T04:59:50.750Z,53.27
2017-09-24T05:02:19.109Z,51.77
2017-09-24T05:04:47.455Z,48.47
2017-09-24T05:07:15.802Z,51.40
2017-09-24T05:09:44.190Z,50.47
2017-09-24T05:12:12.536Z,50.37
2017-09-24T05:14:40.891Z,54.20
2017-09-24T05:17:09.239Z,52.60
2017-09-24T05:19:37.595Z,54.60
2017-09-24T05:22:06.078Z,58.03
2017-09-24T05:24:34.438Z,57.50
2017-09-24T05:27:02.790Z,56.67
2017-09-24T05:29:31.142Z,59.67
2017-09-24T05:31:59.495Z,61.17
2017-09-24T05:34:27.975Z,58.10
2017-09-24T05:36:56.339Z,60.33
2017-09-24T05:39:24.691Z,64.20
2017-09-24T05:41:53.045Z,62.73
2017-09-24T05:44:21.391Z,60.50
2017-09-24T05:46:49.774Z,58.47
2017-09-24T05:49:18.123Z,59.70
2017-09-24T05:51:46.507Z,57.57
2017-09-24T05:54:14.858Z,55.97
2017-09-24T05:56:43.246Z,64.43
2017-09-24T05:59:11.599Z,61.93
2017-09-24T06:01:39.966Z,59.30
2017-09-24T06:04:08.447Z,62.13
2017-09-24T06:06:36.801Z,63.63
2017-09-24T06:09:05.159Z,64.27
2017-09-24T06:11:33.515Z,64.40
2017-09-24T06:14:02.114Z,59.27
2017-09-24T06:16:31.283Z,59.00
2017-09-24T06:19:00.624Z,53.67
2017-09-24T06:21:30.045Z,58.27
2017-09-24T06:23:58.992Z,57.97
2017-09-24T06:26:27.779Z,56.63
2017-09-24T06:28:57.193Z,59.63
2017-09-24T06:31:26.255Z,58.23
2017-09-24T06:33:54.916Z,54.70
2017-09-24T06:36:23.625Z,57.40
2017-09-24T06:38:52.670Z,56.80
2017-09-24T06:41:21.558Z,60.90
2017-09-24T06:43:50.336Z,58.93
2017-09-24T06:46:19.931Z,57.10
2017-09-24T06:48:48.906Z,53.33
2017-09-24T06:51:17.972Z,50.03
2017-09-24T06:53:46.603Z,48.60
2017-09-24T06:56:15.546Z,51.17
2017-09-24T06:58:44.232Z,49.70
2017-09-24T07:01:13.178Z,51.40
2017-09-24T07:03:42.140Z,50.13
2017-09-24T07:06:10.801Z,50.40
2017-09-24T07:08:39.863Z,52.03
2017-09-24T07:11:08.587Z,50.10
2017-09-24T07:13:37.681Z,49.03
2017-09-24T07:16:06.989Z,48.93
2017-09-24T07:18:35.766Z,47.60
2017-09-24T07:21:04.699Z,43.00
2017-09-24T07:23:33.538Z,41.40
2017-09-24T07:26:02.610Z,43.10
2017-09-24T07:28:31.327Z,38.67
2017-09-24T07:30:59.883Z,42.23
2017-09-24T07:33:28.226Z,42.07
2017-09-24T07:35:56.576Z,43.50
2017-09-24T07:38:24.922Z,40.70
2017-09-24T07:40:53.266Z,42.10
2017-09-24T07:43:21.746Z,38.27
2017-09-24T07:45:50.098Z,37.27
2017-09-24T07:48:18.434Z,41.27
2017-09-24T07:50:46.778Z,38.60
2017-09-24T07:53:15.127Z,38.93
2017-09-24T07:55:43.499Z,37.47
2017-09-24T07:58:11.854Z,36.57
2017-09-24T08:00:40.198Z,40.20
2017-09-24T08:03:08.551Z,38.30
2017-09-24T08:05:36.890Z,36.27
2017-09-24T08:08:05.271Z,39.10
2017-09-24T08:10:33.611Z,40.67
2017-09-24T08:13:01.950Z,41.40
2017-09-24T08:15:30.298Z,39.13
2017-09-24T08:17:58.640Z,36.50
2017-09-24T08:20:27.015Z,33.87
2017-09-24T08:22:55.361Z,34.30
2017-09-24T08:25:23.734Z,30.87
2017-09-24T08:27:52.097Z,33.40
2017-09-24T08:30:20.440Z,30.50
2017-09-24T08:32:48.790Z,31.10
2017-09-24T08:35:17.139Z,30.83
2017-09-24T08:37:45.483Z,29.20
2017-09-24T08:40:13.831Z,30.63
2017-09-24T08:42:42.179Z,30.70
2017-09-24T08:45:10.538Z,31.10
2017-09-24T08:47:38.931Z,32.33
2017-09-24T08:50:07.284Z,30.90
2017-09-24T08:52:35.635Z,32.17
2017-09-24T08:55:03.975Z,30.30
2017-09-24T08:57:32.332Z,28.03
2017-09-24T09:00:00.802Z,28.73
2017-09-24T09:02:29.146Z,28.80
2017-09-24T09:04:57.496Z,28.80
2017-09-24T09:07:25.843Z,27.30
2017-09-24T09:09:54.187Z,29.53
2017-09-24T09:12:22.643Z,29.67
2017-09-24T09:14:50.995Z,29.50
2017-09-24T09:17:19.341Z,28.30
2017-09-24T09:19:47.690Z,26.73
2017-09-24T09:22:16.037Z,28.00
2017-09-24T09:24:44.386Z,27.43
2017-09-24T09:27:12.733Z,24.80
2017-09-24T09:29:41.213Z,26.67
2017-09-24T09:32:09.555Z,24.53
2017-09-24T09:34:37.911Z,26.60
2017-09-24T09:37:06.251Z,25.90
2017-09-24T09:39:34.595Z,27.53
2017-09-24T09:42:03.066Z,28.00
2017-09-24T09:44:43.214Z,26.67
2017-09-24T09:47:23.215Z,26.30
2017-09-24T09:49:51.566Z,25.03
2017-09-24T09:52:19.907Z,24.93
2017-09-24T09:54:48.282Z,25.77
2017-09-24T09:57:16.632Z,22.60
2017-09-24T09:59:45.083Z,22.33
2017-09-24T10:02:13.434Z,23.23
2017-09-24T10:04:41.781Z,23.40
2017-09-24T10:07:21.811Z,24.10
2017-09-24T10:10:01.707Z,23.60
2017-09-24T10:12:30.057Z,25.23
2017-09-24T10:14:58.415Z,26.33
2017-09-24T10:17:26.784Z,25.40
2017-09-24T10:19:55.130Z,24.63
2017-09-24T10:22:23.606Z,23.93
2017-09-24T10:24:51.954Z,22.17
2017-09-24T10:27:20.301Z,24.30
2017-09-24T10:30:00.407Z,25.40
2017-09-24T10:32:28.799Z,24.13
2017-09-24T10:34:57.147Z,21.10
2017-09-24T10:37:25.496Z,21.63
2017-09-24T10:39:53.868Z,20.60
2017-09-24T10:42:22.246Z,18.13
2017-09-24T10:44:50.623Z,18.37
2017-09-24T10:47:19.322Z,19.57
2017-09-24T10:49:48.078Z,19.70
2017-09-24T10:52:16.495Z,18.43
2017-09-24T10:54:44.858Z,16.33
2017-09-24T10:57:13.208Z,16.27
2017-09-24T10:59:41.567Z,16.07
2017-09-24T11:02:09.951Z,16.70
2017-09-24T11:04:38.315Z,15.30
2017-09-24T11:07:06.715Z,15.73
2017-09-24T11:09:36.017Z,14.63
2017-09-24T11:12:04.511Z,16.10
2017-09-24T11:14:37.595Z,16.70
2017-09-24T11:17:06.277Z,18.27
2017-09-24T11:19:34.746Z,18.10
2017-09-24T11:22:04.378Z,18.93
2017-09-24T11:24:32.874Z,19.23
2017-09-24T11:27:01.380Z,18.27
2017-09-24T11:29:29.927Z,20.60
2017-09-24T11:31:58.403Z,18.37
2017-09-24T11:34:26.875Z,19.70
2017-09-24T11:36:55.400Z,20.13
2017-09-24T11:39:23.900Z,17.73
2017-09-24T11:41:52.482Z,19.10
2017-09-24T11:44:20.980Z,17.10
2017-09-24T11:46:51.288Z,15.97
2017-09-24T11:49:20.413Z,15.27
2017-09-24T11:51:50.823Z,13.83
2017-09-24T11:54:20.142Z,14.03
2017-09-24T11:56:49.240Z,13.00
2017-09-24T11:59:17.800Z,16.93
2017-09-24T12:01:46.386Z,17.03
2017-09-24T12:04:18.926Z,15.50
2017-09-24T12:06:49.054Z,14.17
2017-09-24T12:09:17.508Z,13.70
2017-09-24T12:11:46.361Z,12.03
2017-09-24T12:14:16.851Z,12.37
2017-09-24T12:16:47.273Z,12.03
2017-09-24T12:19:15.929Z,9.80
2017-09-24T12:21:44.400Z,10.47
2017-09-24T12:24:16.961Z,8.33
2017-09-24T12:26:45.860Z,8.00
2017-09-24T12:29:14.556Z,9.70
2017-09-24T12:31:43.211Z,10.13
2017-09-24T12:34:11.676Z,9.97
2017-09-24T12:37:00.197Z,11.40
2017-09-24T12:39:37.833Z,10.77
2017-09-24T12:42:06.772Z,10.20
2017-09-24T12:44:37.033Z,10.33
2017-09-24T12:47:10.362Z,10.73
2017-09-24T12:49:39.701Z,10.77
2017-09-24T12:52:09.937Z,11.20
2017-09-24T13:00:33.404Z,10.47
2017-09-24T13:12:22.622Z,11.70
2017-09-24T13:16:52.570Z,11.20
2017-09-24T13:22:52.101Z,15.43
2017-09-24T13:28:32.257Z,15.67
2017-09-24T13:34:29.396Z,15.73
2017-09-24T13:43:17.090Z,17.60
2017-09-24T13:52:23.602Z,12.40
2017-09-24T13:54:53.130Z,13.10
2017-09-24T13:57:21.996Z,12.33
2017-09-24T13:59:50.662Z,10.57
2017-09-24T14:02:19.583Z,11.40
2017-09-24T14:04:47.969Z,10.27
2017-09-24T14:07:16.300Z,9.37
2017-09-24T14:09:45.799Z,8.33
2017-09-24T16:07:42.179Z,5.80
2017-09-24T16:10:10.519Z,5.70
2017-09-24T16:12:38.867Z,5.53
2017-09-24T16:15:07.211Z,5.77
2017-09-24T16:17:35.554Z,4.80
2017-09-24T16:20:03.923Z,6.50
2017-09-24T16:22:32.270Z,5.97
2017-09-24T16:25:00.642Z,5.80
2017-09-24T16:27:29.011Z,5.30
2017-09-24T16:29:57.467Z,5.10
2017-09-24T16:32:25.854Z,4.90
2017-09-24T16:34:54.198Z,5.30
2017-09-24T16:37:22.571Z,4.50
2017-09-24T16:39:50.902Z,5.20
2017-09-24T16:42:19.551Z,4.80
2017-09-24T16:44:47.904Z,4.77
2017-09-24T16:47:16.309Z,5.23
2017-09-24T16:49:44.680Z,5.80
2017-09-24T16:52:13.040Z,6.50
2017-09-24T16:54:41.418Z,6.40
2017-09-24T16:57:09.749Z,6.07
2017-09-24T16:59:38.114Z,6.37
2017-09-24T17:02:06.608Z,5.63
2017-09-24T17:04:34.974Z,6.20
2017-09-24T17:07:03.491Z,6.43
2017-09-24T17:09:31.845Z,5.90
2017-09-24T17:12:00.181Z,6.17
2017-09-24T17:14:28.566Z,6.20
2017-09-24T17:16:57.743Z,5.80
2017-09-24T17:19:26.114Z,6.53
2017-09-24T17:21:54.451Z,6.50
2017-09-24T17:24:22.814Z,5.80
2017-09-24T17:26:51.148Z,6.20
2017-09-24T17:29:19.491Z,6.43
2017-09-24T17:31:47.842Z,6.43
2017-09-24T17:34:16.183Z,6.87
2017-09-24T17:36:44.525Z,6.97
2017-09-24T17:39:12.866Z,6.87
2017-09-24T17:41:41.203Z,6.57
2017-09-24T17:44:09.546Z,6.70
2017-09-24T17:46:37.907Z,6.20
2017-09-24T17:49:06.270Z,6.73
2017-09-24T17:51:34.627Z,6.20
2017-09-24T17:54:03.195Z,6.20
2017-09-24T17:56:31.543Z,6.47
2017-09-24T17:58:59.919Z,5.70
2017-09-24T18:01:28.248Z,6.97
2017-09-24T18:03:56.610Z,6.80
2017-09-24T18:06:24.960Z,7.43
2017-09-24T18:08:53.319Z,7.43
2017-09-24T18:11:21.669Z,7.87
2017-09-24T18:13:50.016Z,8.33
2017-09-24T18:16:18.382Z,8.10
2017-09-24T18:18:46.718Z,7.43
2017-09-24T18:21:15.087Z,8.63
2017-09-24T18:23:43.460Z,8.30
2017-09-24T18:26:11.850Z,8.07
2017-09-24T18:28:40.220Z,8.60
2017-09-24T18:31:08.576Z,8.57
2017-09-24T18:33:36.950Z,8.30
2017-09-24T18:36:05.306Z,7.80
2017-09-24T18:38:33.694Z,8.53
2017-09-24T18:41:02.455Z,7.73
2017-09-24T18:43:30.880Z,9.17
2017-09-24T18:45:59.864Z,9.40
2017-09-24T18:48:28.343Z,10.50
2017-09-24T18:50:56.690Z,11.00
2017-09-24T18:53:25.047Z,10.83
2017-09-24T18:55:53.607Z,9.97
2017-09-24T18:58:27.758Z,10.30
2017-09-24T19:00:57.668Z,12.93
2017-09-24T19:03:26.563Z,12.87
2017-09-24T19:05:54.911Z,12.43
2017-09-24T19:08:23.265Z,12.90
2017-09-24T19:10:51.639Z,11.97
2017-09-24T19:13:19.995Z,12.60
2017-09-24T19:15:48.474Z,12.50
2017-09-24T19:18:17.111Z,13.60
2017-09-24T19:20:45.810Z,13.10
2017-09-24T19:23:14.183Z,12.60
2017-09-24T19:25:42.589Z,14.00
2017-09-24T19:28:11.223Z,13.60
2017-09-24T19:30:39.574Z,14.43
2017-09-24T19:33:07.918Z,14.30
2017-09-24T19:35:36.280Z,14.17
2017-09-24T19:38:04.626Z,14.20
2017-09-24T19:40:33.010Z,14.87
2017-09-24T19:43:01.359Z,14.57
2017-09-24T19:45:29.707Z,14.57
2017-09-24T19:47:58.086Z,14.80
2017-09-24T19:50:26.434Z,14.43
2017-09-24T19:52:54.809Z,15.07
2017-09-24T19:55:23.157Z,14.53
2017-09-24T19:57:51.534Z,13.60
2017-09-24T20:00:19.908Z,15.83
2017-09-24T20:02:48.266Z,15.33
2017-09-24T20:05:16.643Z,15.50
2017-09-24T20:07:45.016Z,16.13
2017-09-24T20:10:13.386Z,15.67
2017-09-24T20:12:41.855Z,16.37
2017-09-24T20:15:10.471Z,16.17
2017-09-24T20:17:38.825Z,15.27
2017-09-24T20:20:07.166Z,15.53
2017-09-24T20:22:35.518Z,16.20
2017-09-24T20:25:03.872Z,15.93
2017-09-24T20:27:32.251Z,16.70
2017-09-24T20:30:00.632Z,15.63
2017-09-24T20:32:28.979Z,16.30
2017-09-24T20:34:57.358Z,17.67
2017-09-24T20:37:25.703Z,19.10
2017-09-24T20:39:54.085Z,17.93
2017-09-24T20:42:22.442Z,17.40
2017-09-24T20:44:50.816Z,17.40
2017-09-24T20:47:19.166Z,15.83
2017-09-24T20:49:47.524Z,15.37
2017-09-24T20:52:15.876Z,14.97
2017-09-24T20:54:44.230Z,17.33
2017-09-24T20:57:12.579Z,17.70
2017-09-24T20:59:41.035Z,17.83
2017-09-24T21:02:09.399Z,18.03
2017-09-24T21:04:37.738Z,18.03
2017-09-24T21:07:06.094Z,16.50
2017-09-24T21:09:34.466Z,16.50
2017-09-24T21:12:02.820Z,16.60
2017-09-24T21:14:31.167Z,17.10
2017-09-24T21:16:59.522Z,17.33
2017-09-24T21:19:27.876Z,18.10
2017-09-24T21:21:56.250Z,17.73
2017-09-24T21:24:24.623Z,16.23
2017-09-24T21:26:52.971Z,16.03
2017-09-24T21:29:21.320Z,14.60
2017-09-24T21:31:49.671Z,16.83
2017-09-24T21:34:18.019Z,15.30
2017-09-24T21:36:46.392Z,14.43
2017-09-24T21:39:14.763Z,13.90
2017-09-24T21:41:43.114Z,12.80
2017-09-24T21:44:12.242Z,13.53
2017-09-24T21:46:40.590Z,12.50
2017-09-24T21:49:08.942Z,14.23
2017-09-24T21:51:37.288Z,13.20
2017-09-24T21:54:05.636Z,15.00
2017-09-24T21:56:34.011Z,13.80
2017-09-24T21:59:02.395Z,13.07
2017-09-24T22:01:30.771Z,15.13
2017-09-24T22:03:59.117Z,15.63
2017-09-24T22:06:27.495Z,15.87
2017-09-24T22:08:55.841Z,15.73
2017-09-24T22:11:24.200Z,16.37
2017-09-24T22:13:52.543Z,14.63
2017-09-24T22:16:20.892Z,15.50
2017-09-24T22:18:49.388Z,15.40
2017-09-24T22:21:17.734Z,15.83
2017-09-24T22:23:46.085Z,16.10
2017-09-24T22:26:14.427Z,14.70
2017-09-24T22:28:42.776Z,13.70
2017-09-24T22:31:11.126Z,15.23
2017-09-24T22:33:39.533Z,14.20
2017-09-24T22:36:07.929Z,13.93
2017-09-24T22:38:36.254Z,15.10
2017-09-24T22:41:04.730Z,14.17
2017-09-24T22:43:33.078Z,15.73
2017-09-24T22:46:01.762Z,14.90
2017-09-24T22:48:30.135Z,15.20
2017-09-24T22:50:58.485Z,14.87
2017-09-24T22:53:26.830Z,16.00
2017-09-24T22:55:55.227Z,16.63
2017-09-24T22:58:23.596Z,15.57
2017-09-24T23:00:51.972Z,16.90
2017-09-24T23:03:20.319Z,15.60
2017-09-24T23:05:48.695Z,15.60
2017-09-24T23:08:17.044Z,15.80
2017-09-24T23:10:45.398Z,15.93
2017-09-24T23:13:13.750Z,15.77
2017-09-24T23:15:42.095Z,16.20
2017-09-24T23:18:10.470Z,15.97
2017-09-24T23:20:38.820Z,16.40
2017-09-24T23:23:07.158Z,17.60
2017-09-24T23:25:35.635Z,16.60
2017-09-24T23:28:03.983Z,14.70
2017-09-24T23:30:32.338Z,15.93
2017-09-24T23:33:00.682Z,16.40
2017-09-24T23:35:29.034Z,15.10
2017-09-24T23:37:57.407Z,17.07
2017-09-24T23:40:25.779Z,15.40
2017-09-24T23:42:54.149Z,14.80
2017-09-24T23:45:22.525Z,14.37
2017-09-24T23:47:50.867Z,15.63
2017-09-24T23:50:19.214Z,14.80
2017-09-24T23:52:47.595Z,14.23
2017-09-24T23:55:15.943Z,13.60
2017-09-24T23:57:44.323Z,14.17
